createdAt,value
2018-03-28T00:01:58.179Z,4.50
2018-03-28T00:04:24.486Z,4.50
2018-03-28T00:06:50.781Z,4.30
2018-03-28T00:09:17.094Z,4.30
2018-03-28T00:11:43.379Z,4.20
2018-03-28T00:14:09.658Z,4.20
2018-03-28T00:16:35.974Z,4.20
2018-03-28T00:19:02.251Z,4.10
2018-03-28T00:21:29.305Z,4.10
2018-03-28T00:23:55.583Z,4.10
2018-03-28T00:26:21.874Z,4.00
2018-03-28T00:28:48.173Z,4.00
2018-03-28T00:31:15.470Z,4.00
2018-03-28T00:33:42.801Z,4.10
2018-03-28T00:36:09.107Z,4.10
2018-03-28T00:38:35.390Z,4.10
2018-03-28T00:41:01.694Z,4.10
2018-03-28T00:43:27.990Z,4.00
2018-03-28T00:45:54.298Z,4.20
2018-03-28T00:48:20.599Z,4.20
2018-03-28T00:50:46.906Z,4.10
2018-03-28T00:53:13.946Z,4.10
2018-03-28T00:55:40.974Z,4.10
2018-03-28T00:58:07.271Z,4.10
2018-03-28T01:00:33.559Z,4.10
2018-03-28T01:03:00.574Z,4.00
2018-03-28T01:05:26.878Z,4.00
2018-03-28T01:07:53.170Z,4.00
2018-03-28T01:10:20.919Z,3.90
2018-03-28T01:12:47.943Z,3.80
2018-03-28T01:15:14.255Z,3.80
2018-03-28T01:17:40.550Z,3.70
2018-03-28T01:20:06.952Z,3.80
2018-03-28T01:22:33.979Z,3.80
2018-03-28T01:25:00.279Z,3.70
2018-03-28T01:27:26.568Z,3.70
2018-03-28T01:29:53.582Z,3.90
2018-03-28T01:32:19.868Z,3.80
2018-03-28T01:34:46.174Z,3.80
2018-03-28T01:37:13.210Z,3.80
2018-03-28T01:39:39.490Z,3.70
2018-03-28T01:42:05.808Z,3.70
2018-03-28T01:44:32.086Z,3.70
2018-03-28T01:46:58.362Z,3.70
2018-03-28T01:49:24.658Z,3.80
2018-03-28T01:51:50.970Z,3.70
2018-03-28T01:54:17.354Z,3.70
2018-03-28T01:56:43.664Z,3.80
2018-03-28T01:59:10.695Z,3.70
2018-03-28T02:01:36.985Z,3.70
2018-03-28T02:04:03.274Z,3.70
2018-03-28T02:06:30.332Z,3.70
2018-03-28T02:08:56.652Z,3.60
2018-03-28T02:11:23.717Z,3.60
2018-03-28T02:13:49.999Z,3.60
2018-03-28T02:16:16.270Z,3.70
2018-03-28T02:18:42.632Z,3.70
2018-03-28T02:21:09.259Z,3.70
2018-03-28T02:23:36.590Z,3.80
2018-03-28T02:26:03.882Z,3.80
2018-03-28T02:28:30.167Z,3.80
2018-03-28T02:30:56.495Z,3.80
2018-03-28T02:33:23.569Z,3.90
2018-03-28T02:35:49.920Z,3.80
2018-03-28T02:38:16.228Z,3.80
2018-03-28T02:40:42.551Z,3.80
2018-03-28T02:43:08.855Z,3.90
2018-03-28T02:45:35.912Z,3.90
2018-03-28T02:48:03.330Z,4.00
2018-03-28T02:50:29.655Z,3.90
2018-03-28T02:52:55.922Z,4.00
2018-03-28T02:55:22.970Z,4.00
2018-03-28T02:57:50.007Z,4.00
2018-03-28T03:00:16.309Z,4.00
2018-03-28T03:02:42.616Z,4.00
2018-03-28T03:05:08.924Z,4.00
2018-03-28T03:07:35.232Z,4.10
2018-03-28T03:10:01.569Z,4.10
2018-03-28T03:12:28.605Z,4.30
2018-03-28T03:14:54.905Z,4.20
2018-03-28T03:17:21.290Z,4.40
2018-03-28T03:19:48.337Z,4.40
2018-03-28T03:22:15.386Z,4.50
2018-03-28T03:24:42.439Z,4.60
2018-03-28T03:27:08.734Z,4.60
2018-03-28T03:29:35.022Z,4.60
2018-03-28T03:32:01.418Z,4.70
2018-03-28T03:34:28.434Z,4.80
2018-03-28T03:36:54.874Z,4.80
2018-03-28T03:39:21.170Z,4.90
2018-03-28T03:41:47.512Z,5.00
2018-03-28T03:44:13.799Z,5.00
2018-03-28T03:46:41.114Z,4.90
2018-03-28T03:49:07.403Z,4.90
2018-03-28T03:51:33.704Z,5.00
2018-03-28T03:54:00.754Z,5.00
2018-03-28T03:56:27.826Z,4.90
2018-03-28T03:58:54.146Z,4.90
2018-03-28T04:01:22.202Z,5.00
2018-03-28T04:03:49.247Z,4.90
2018-03-28T04:06:16.288Z,4.90
2018-03-28T04:08:43.955Z,4.90
2018-03-28T04:11:10.981Z,5.00
2018-03-28T04:13:37.259Z,4.90
2018-03-28T04:16:04.631Z,4.90
2018-03-28T04:18:30.906Z,5.00
2018-03-28T04:20:57.193Z,4.90
2018-03-28T04:23:23.468Z,5.00
2018-03-28T04:25:49.767Z,5.00
2018-03-28T04:28:16.090Z,4.90
2018-03-28T04:30:42.387Z,5.00
2018-03-28T04:33:09.763Z,5.00
2018-03-28T04:35:36.113Z,5.00
2018-03-28T04:38:02.445Z,5.00
2018-03-28T04:40:28.771Z,5.10
2018-03-28T04:42:55.087Z,5.10
2018-03-28T04:45:21.373Z,5.10
2018-03-28T04:47:48.425Z,5.00
2018-03-28T04:50:15.472Z,5.10
2018-03-28T04:52:42.549Z,5.10
2018-03-28T04:55:08.826Z,5.10
2018-03-28T04:57:35.935Z,5.20
2018-03-28T05:00:02.254Z,5.20
2018-03-28T05:02:28.550Z,5.20
2018-03-28T05:04:55.582Z,5.20
2018-03-28T05:07:21.865Z,5.20
2018-03-28T05:09:48.170Z,5.20
2018-03-28T05:12:15.201Z,5.20
2018-03-28T05:14:41.498Z,5.20
2018-03-28T05:17:07.812Z,5.30
2018-03-28T05:19:34.098Z,5.30
2018-03-28T05:22:01.161Z,5.40
2018-03-28T05:24:29.198Z,5.50
2018-03-28T05:26:55.503Z,5.50
2018-03-28T05:29:21.824Z,5.40
2018-03-28T05:31:48.114Z,5.50
2018-03-28T05:34:15.999Z,5.50
2018-03-28T05:36:42.366Z,5.50
2018-03-28T05:39:08.645Z,5.60
2018-03-28T05:41:35.671Z,5.80
2018-03-28T05:44:01.998Z,5.80
2018-03-28T05:46:28.302Z,5.80
2018-03-28T05:48:54.590Z,5.90
2018-03-28T05:51:21.706Z,5.90
2018-03-28T05:53:47.994Z,5.90
2018-03-28T05:56:14.313Z,6.00
2018-03-28T05:58:40.634Z,6.00
2018-03-28T06:01:07.645Z,6.10
2018-03-28T06:03:33.952Z,6.10
2018-03-28T06:06:01.299Z,6.10
2018-03-28T06:08:28.632Z,6.10
2018-03-28T06:10:54.923Z,6.30
2018-03-28T06:13:21.956Z,6.30
2018-03-28T06:15:48.259Z,6.30
2018-03-28T06:18:14.551Z,6.40
2018-03-28T06:20:41.579Z,6.60
2018-03-28T06:23:08.627Z,6.60
2018-03-28T06:25:35.654Z,6.50
2018-03-28T06:28:01.942Z,6.50
2018-03-28T06:30:28.216Z,6.60
2018-03-28T06:32:55.248Z,6.70
2018-03-28T06:35:21.560Z,6.80
2018-03-28T06:37:47.823Z,6.80
2018-03-28T06:40:14.097Z,6.80
2018-03-28T06:42:40.379Z,6.80
2018-03-28T06:45:06.653Z,7.00
2018-03-28T06:47:32.958Z,6.90
2018-03-28T06:50:00.003Z,6.90
2018-03-28T06:52:27.028Z,6.90
2018-03-28T06:54:53.306Z,6.80
2018-03-28T06:57:19.603Z,7.00
2018-03-28T06:59:45.966Z,7.20
2018-03-28T07:02:12.214Z,7.30
2018-03-28T07:04:38.502Z,7.30
2018-03-28T07:07:05.551Z,7.50
2018-03-28T07:09:32.562Z,7.50
2018-03-28T07:11:58.847Z,7.50
2018-03-28T07:14:25.139Z,7.60
2018-03-28T07:16:51.432Z,7.70
2018-03-28T07:19:17.756Z,7.70
2018-03-28T07:21:44.039Z,7.70
2018-03-28T07:24:11.071Z,8.00
2018-03-28T07:26:37.354Z,8.00
2018-03-28T07:29:03.671Z,8.20
2018-03-28T07:31:29.978Z,8.30
2018-03-28T07:33:56.267Z,8.40
2018-03-28T07:36:22.570Z,8.30
2018-03-28T07:38:48.870Z,8.30
2018-03-28T07:41:15.900Z,8.60
2018-03-28T07:43:42.203Z,8.60
2018-03-28T07:46:08.542Z,8.70
2018-03-28T07:48:34.828Z,8.80
2018-03-28T07:51:01.134Z,8.90
2018-03-28T07:53:27.467Z,8.90
2018-03-28T07:55:54.523Z,8.80
2018-03-28T07:58:20.816Z,8.70
2018-03-28T08:00:47.120Z,8.80
2018-03-28T08:03:13.419Z,9.00
2018-03-28T08:05:40.446Z,9.30
2018-03-28T08:08:06.740Z,9.30
2018-03-28T08:10:33.042Z,9.40
2018-03-28T08:12:59.322Z,9.40
2018-03-28T08:15:25.601Z,9.60
2018-03-28T08:17:51.939Z,9.70
2018-03-28T08:20:18.379Z,9.50
2018-03-28T08:22:44.683Z,9.60
2018-03-28T08:25:10.983Z,9.70
2018-03-28T08:27:37.959Z,10.00
2018-03-28T08:30:05.155Z,10.10
2018-03-28T08:32:31.440Z,10.00
2018-03-28T08:34:58.504Z,10.00
2018-03-28T08:37:24.782Z,10.00
2018-03-28T08:39:51.094Z,10.00
2018-03-28T08:42:17.407Z,10.00
2018-03-28T08:44:43.720Z,10.00
2018-03-28T08:47:10.032Z,10.10
2018-03-28T08:49:37.066Z,10.50
2018-03-28T08:52:04.118Z,10.70
2018-03-28T08:54:31.204Z,10.90
2018-03-28T08:56:57.506Z,10.90
2018-03-28T08:59:24.545Z,11.10
2018-03-28T09:01:51.661Z,11.10
2018-03-28T09:04:17.918Z,11.00
2018-03-28T09:06:44.240Z,10.90
2018-03-28T09:09:10.544Z,10.90
2018-03-28T09:11:36.923Z,10.70
2018-03-28T09:14:03.199Z,10.50
2018-03-28T09:16:29.526Z,10.50
2018-03-28T09:18:55.857Z,10.20
2018-03-28T09:21:22.183Z,10.20
2018-03-28T09:23:48.482Z,10.30
2018-03-28T09:26:14.759Z,10.30
2018-03-28T09:28:41.038Z,10.20
2018-03-28T09:31:07.345Z,10.20
2018-03-28T09:33:33.649Z,10.40
2018-03-28T09:35:59.955Z,10.50
2018-03-28T09:38:26.243Z,10.40
2018-03-28T09:40:52.566Z,10.30
2018-03-28T09:43:18.858Z,10.30
2018-03-28T09:45:45.180Z,10.50
2018-03-28T09:48:11.468Z,10.70
2018-03-28T09:50:38.539Z,10.70
2018-03-28T09:53:04.842Z,10.70
2018-03-28T09:55:31.143Z,10.50
2018-03-28T09:57:57.414Z,10.50
2018-03-28T10:00:26.482Z,10.50
2018-03-28T10:02:58.786Z,10.50
2018-03-28T10:05:32.007Z,10.70
2018-03-28T10:07:58.346Z,10.70
2018-03-28T10:10:24.690Z,10.50
2018-03-28T10:12:51.054Z,10.40
2018-03-28T10:15:17.347Z,10.50
2018-03-28T10:17:43.639Z,10.50
2018-03-28T10:20:10.711Z,11.00
2018-03-28T10:22:36.994Z,10.90
2018-03-28T10:25:04.350Z,11.00
2018-03-28T10:27:30.642Z,11.20
2018-03-28T10:29:56.943Z,11.40
2018-03-28T10:32:23.248Z,11.70
2018-03-28T10:34:51.344Z,11.30
2018-03-28T10:37:17.665Z,11.30
2018-03-28T10:39:43.948Z,11.20
2018-03-28T10:42:10.250Z,11.20
2018-03-28T10:44:36.546Z,11.10
2018-03-28T10:47:03.573Z,11.20
2018-03-28T10:49:30.599Z,11.20
2018-03-28T10:51:56.902Z,11.20
2018-03-28T10:54:23.223Z,11.10
2018-03-28T10:56:49.503Z,11.00
2018-03-28T10:59:15.810Z,10.90
2018-03-28T11:01:42.082Z,11.00
2018-03-28T11:04:09.164Z,10.90
2018-03-28T11:06:35.455Z,10.90
2018-03-28T11:09:01.770Z,10.90
2018-03-28T11:11:28.045Z,10.80
2018-03-28T11:13:54.368Z,10.60
2018-03-28T11:16:20.663Z,10.80
2018-03-28T11:18:46.959Z,11.00
2018-03-28T11:21:13.239Z,11.40
2018-03-28T11:23:40.264Z,11.40
2018-03-28T11:26:06.602Z,11.40
2018-03-28T11:28:32.906Z,11.50
2018-03-28T11:30:59.189Z,11.80
2018-03-28T11:33:27.257Z,11.90
2018-03-28T11:35:54.307Z,11.90
2018-03-28T11:38:21.384Z,11.90
2018-03-28T11:40:47.686Z,11.90
2018-03-28T11:43:14.718Z,11.50
2018-03-28T11:45:41.758Z,11.40
2018-03-28T11:48:08.060Z,11.40
2018-03-28T11:50:34.378Z,11.40
2018-03-28T11:53:00.722Z,11.50
2018-03-28T11:55:27.004Z,11.50
2018-03-28T11:57:53.305Z,11.30
2018-03-28T12:00:21.382Z,11.10
2018-03-28T12:02:47.683Z,11.10
2018-03-28T12:05:13.971Z,11.20
2018-03-28T12:07:40.270Z,11.00
2018-03-28T12:10:06.578Z,11.10
2018-03-28T12:12:33.543Z,11.20
2018-03-28T12:14:59.847Z,11.40
2018-03-28T12:17:26.151Z,11.30
2018-03-28T12:19:53.197Z,11.40
2018-03-28T12:22:19.498Z,11.40
2018-03-28T12:24:46.546Z,11.60
2018-03-28T12:27:13.600Z,11.40
2018-03-28T12:29:40.633Z,11.40
2018-03-28T12:32:07.946Z,11.40
2018-03-28T12:34:34.251Z,11.50
2018-03-28T12:37:00.544Z,11.50
2018-03-28T12:39:26.839Z,11.50
2018-03-28T12:41:53.206Z,11.70
2018-03-28T12:44:19.512Z,11.70
2018-03-28T12:46:45.819Z,11.70
2018-03-28T12:49:12.121Z,11.50
2018-03-28T12:51:38.463Z,11.40
2018-03-28T12:54:04.953Z,11.30
2018-03-28T12:56:31.129Z,11.50
2018-03-28T12:58:57.449Z,11.80
2018-03-28T13:01:23.723Z,11.70
2018-03-28T13:03:50.025Z,11.70
2018-03-28T13:06:16.941Z,11.90
2018-03-28T13:08:43.979Z,11.70
2018-03-28T13:11:11.027Z,11.50
2018-03-28T13:13:38.066Z,11.40
2018-03-28T13:16:05.154Z,11.20
2018-03-28T13:18:31.430Z,11.10
2018-03-28T13:20:57.707Z,11.10
2018-03-28T13:23:24.007Z,11.10
2018-03-28T13:25:51.043Z,11.30
2018-03-28T13:28:17.343Z,11.20
2018-03-28T13:30:43.639Z,11.30
2018-03-28T13:33:09.926Z,11.20
2018-03-28T13:35:36.227Z,11.10
2018-03-28T13:38:02.550Z,11.10
2018-03-28T13:40:28.839Z,11.30
2018-03-28T13:42:55.862Z,11.40
2018-03-28T13:45:22.157Z,11.40
2018-03-28T13:47:48.450Z,11.20
2018-03-28T13:50:15.471Z,11.20
2018-03-28T13:52:41.763Z,11.20
2018-03-28T13:55:08.077Z,11.20
2018-03-28T13:57:34.366Z,11.10
2018-03-28T14:00:00.717Z,11.30
2018-03-28T14:02:27.706Z,11.20
2018-03-28T14:04:54.008Z,11.20
2018-03-28T14:07:20.310Z,11.30
2018-03-28T14:09:46.623Z,11.20
2018-03-28T14:12:12.934Z,11.20
2018-03-28T14:14:39.230Z,11.20
2018-03-28T14:17:05.548Z,11.00
2018-03-28T14:19:32.583Z,11.40
2018-03-28T14:21:59.605Z,11.60
2018-03-28T14:24:25.943Z,11.60
2018-03-28T14:26:52.218Z,11.70
2018-03-28T14:29:18.527Z,11.80
2018-03-28T14:31:45.562Z,12.00
2018-03-28T14:34:12.630Z,12.10
2018-03-28T14:36:39.684Z,12.20
2018-03-28T14:39:06.018Z,12.20
2018-03-28T14:41:32.307Z,12.50
2018-03-28T14:43:58.630Z,12.60
2018-03-28T14:46:24.963Z,12.60
2018-03-28T14:48:51.263Z,12.60
2018-03-28T14:51:17.582Z,12.50
2018-03-28T14:53:43.883Z,12.20
2018-03-28T14:56:10.950Z,11.90
2018-03-28T14:58:37.251Z,11.90
2018-03-28T15:01:04.299Z,11.90
2018-03-28T15:03:31.362Z,11.80
2018-03-28T15:05:57.666Z,11.80
2018-03-28T15:08:23.971Z,11.50
2018-03-28T15:10:50.263Z,11.40
2018-03-28T15:13:16.656Z,11.50
2018-03-28T15:15:42.927Z,11.60
2018-03-28T15:18:09.247Z,11.60
2018-03-28T15:20:35.547Z,11.50
2018-03-28T15:23:01.873Z,11.30
2018-03-28T15:25:28.160Z,11.20
2018-03-28T15:27:55.502Z,11.10
2018-03-28T15:30:21.836Z,10.60
2018-03-28T15:32:48.157Z,10.40
2018-03-28T15:35:14.430Z,10.20
2018-03-28T15:37:40.722Z,10.20
2018-03-28T15:40:07.024Z,10.10
2018-03-28T15:42:34.099Z,10.20
2018-03-28T15:45:00.382Z,10.20
2018-03-28T15:47:28.163Z,9.90
2018-03-28T15:49:55.198Z,9.90
2018-03-28T15:52:21.491Z,9.80
2018-03-28T15:54:47.942Z,9.90
2018-03-28T15:57:14.238Z,9.80
2018-03-28T15:59:40.551Z,9.60
2018-03-28T16:02:06.863Z,9.60
2018-03-28T16:04:33.193Z,9.40
2018-03-28T16:06:59.532Z,9.40
2018-03-28T16:09:25.830Z,9.40
2018-03-28T16:11:52.218Z,9.40
2018-03-28T16:14:18.538Z,9.20
2018-03-28T16:16:45.903Z,9.20
2018-03-28T16:19:12.242Z,9.20
2018-03-28T16:21:38.550Z,9.10
2018-03-28T16:24:06.516Z,9.00
2018-03-28T16:26:33.571Z,9.10
2018-03-28T16:28:59.920Z,9.10
2018-03-28T16:31:26.959Z,9.00
2018-03-28T16:33:53.302Z,9.00
2018-03-28T16:36:19.602Z,9.00
2018-03-28T16:38:45.898Z,9.10
2018-03-28T16:41:13.223Z,9.00
2018-03-28T16:43:39.529Z,9.00
2018-03-28T16:46:05.835Z,9.00
2018-03-28T16:48:32.171Z,8.90
2018-03-28T16:50:58.490Z,8.90
2018-03-28T16:53:24.803Z,9.00
2018-03-28T16:55:52.846Z,9.00
2018-03-28T16:58:19.162Z,9.00
2018-03-28T17:00:45.492Z,9.00
2018-03-28T17:03:11.803Z,9.00
2018-03-28T17:05:38.118Z,8.90
2018-03-28T17:08:04.427Z,8.90
2018-03-28T17:10:31.465Z,8.90
2018-03-28T17:12:57.841Z,8.90
2018-03-28T17:15:24.834Z,8.90
2018-03-28T17:17:51.158Z,8.80
2018-03-28T17:20:17.479Z,8.90
2018-03-28T17:22:43.799Z,8.80
2018-03-28T17:25:10.101Z,8.80
2018-03-28T17:27:36.402Z,8.80
2018-03-28T17:30:03.526Z,8.70
2018-03-28T17:32:29.790Z,8.60
2018-03-28T17:34:56.863Z,8.60
2018-03-28T17:37:23.172Z,8.60
2018-03-28T17:39:50.202Z,8.40
2018-03-28T17:42:16.518Z,8.50
2018-03-28T17:44:42.814Z,8.40
2018-03-28T17:47:09.134Z,8.50
2018-03-28T17:49:35.426Z,8.40
2018-03-28T17:52:02.478Z,8.40
2018-03-28T17:54:29.537Z,8.40
2018-03-28T17:56:56.595Z,8.50
2018-03-28T17:59:23.711Z,8.40
2018-03-28T18:01:50.043Z,8.40
2018-03-28T18:04:16.390Z,8.30
2018-03-28T18:06:42.674Z,8.40
2018-03-28T18:09:08.979Z,8.40
2018-03-28T18:11:35.283Z,8.40
2018-03-28T18:14:02.343Z,8.70
2018-03-28T18:16:28.625Z,8.60
2018-03-28T18:18:54.914Z,8.70
2018-03-28T18:21:21.234Z,8.70
2018-03-28T18:23:47.526Z,8.70
2018-03-28T18:26:13.810Z,8.70
2018-03-28T18:28:40.099Z,8.70
2018-03-28T18:31:06.427Z,8.70
2018-03-28T18:33:32.715Z,8.50
2018-03-28T18:35:59.041Z,8.50
2018-03-28T18:38:25.318Z,8.40
2018-03-28T18:40:51.634Z,8.50
2018-03-28T18:43:17.935Z,8.60
2018-03-28T18:45:45.921Z,8.60
2018-03-28T18:48:12.228Z,8.80
2018-03-28T18:50:38.595Z,8.70
2018-03-28T18:53:05.056Z,8.70
2018-03-28T18:55:32.189Z,8.70
2018-03-28T18:57:58.478Z,8.70
2018-03-28T19:00:24.813Z,8.70
2018-03-28T19:02:51.122Z,8.60
2018-03-28T19:05:17.451Z,8.60
2018-03-28T19:07:43.767Z,8.60
2018-03-28T19:10:10.879Z,8.50
2018-03-28T19:12:37.186Z,8.60
2018-03-28T19:15:03.542Z,8.70
2018-03-28T19:17:29.876Z,8.70
2018-03-28T19:19:58.879Z,8.80
2018-03-28T19:22:25.906Z,8.80
2018-03-28T19:24:52.189Z,8.80
2018-03-28T19:27:19.247Z,8.80
2018-03-28T19:29:45.546Z,8.80
2018-03-28T19:32:11.843Z,8.80
2018-03-28T19:34:38.148Z,8.80
2018-03-28T19:37:04.486Z,8.80
2018-03-28T19:39:30.800Z,8.70
2018-03-28T19:41:57.113Z,8.70
2018-03-28T19:44:24.150Z,8.60
2018-03-28T19:46:51.202Z,8.60
2018-03-28T19:49:18.254Z,8.60
2018-03-28T19:51:45.314Z,8.70
2018-03-28T19:54:12.343Z,8.70
2018-03-28T19:56:38.656Z,8.70
2018-03-28T19:59:04.966Z,8.70
2018-03-28T20:01:31.292Z,8.70
2018-03-28T20:03:57.574Z,8.70
2018-03-28T20:06:24.609Z,8.70
2018-03-28T20:08:50.919Z,8.70
2018-03-28T20:11:18.283Z,8.70
2018-03-28T20:13:45.001Z,8.80
2018-03-28T20:16:11.334Z,8.70
2018-03-28T20:18:37.629Z,8.60
2018-03-28T20:21:03.946Z,8.50
2018-03-28T20:23:30.991Z,8.60
2018-03-28T20:25:58.078Z,8.60
2018-03-28T20:28:24.371Z,8.60
2018-03-28T20:30:51.431Z,8.60
2018-03-28T20:33:17.755Z,8.60
2018-03-28T20:35:44.062Z,8.60
2018-03-28T20:38:10.350Z,8.60
2018-03-28T20:40:36.672Z,8.50
2018-03-28T20:43:02.946Z,8.60
2018-03-28T20:45:29.262Z,8.60
2018-03-28T20:47:55.831Z,8.50
2018-03-28T20:50:22.888Z,8.50
2018-03-28T20:52:49.914Z,8.50
2018-03-28T20:55:16.252Z,8.50
2018-03-28T20:57:46.524Z,8.50
2018-03-28T21:00:12.874Z,8.50
2018-03-28T21:02:39.185Z,8.50
2018-03-28T21:05:05.489Z,8.50
2018-03-28T21:07:31.783Z,8.50
2018-03-28T21:09:58.105Z,8.50
2018-03-28T21:12:24.405Z,8.50
2018-03-28T21:14:50.722Z,8.50
2018-03-28T21:17:17.012Z,8.50
2018-03-28T21:19:43.317Z,8.50
2018-03-28T21:22:09.615Z,8.50
2018-03-28T21:24:35.911Z,8.40
2018-03-28T21:27:02.936Z,8.40
2018-03-28T21:29:29.236Z,8.40
2018-03-28T21:31:55.533Z,8.30
2018-03-28T21:34:21.870Z,8.30
2018-03-28T21:36:48.162Z,8.40
2018-03-28T21:39:14.447Z,8.30
2018-03-28T21:41:40.754Z,8.30
2018-03-28T21:44:07.789Z,8.30
2018-03-28T21:46:34.850Z,8.30
2018-03-28T21:49:01.906Z,8.30
2018-03-28T21:51:28.202Z,8.30
2018-03-28T21:53:54.528Z,8.30
2018-03-28T21:56:21.826Z,8.30
2018-03-28T21:58:48.126Z,8.40
2018-03-28T22:01:15.170Z,8.40
2018-03-28T22:03:41.478Z,8.40
2018-03-28T22:06:07.807Z,8.30
2018-03-28T22:08:34.117Z,8.20
2018-03-28T22:11:00.434Z,8.30
2018-03-28T22:13:27.738Z,8.30
2018-03-28T22:15:54.791Z,8.20
2018-03-28T22:18:22.595Z,8.10
2018-03-28T22:20:48.908Z,8.10
2018-03-28T22:23:15.971Z,8.10
2018-03-28T22:25:42.305Z,8.10
2018-03-28T22:28:08.650Z,8.10
2018-03-28T22:30:34.962Z,8.20
2018-03-28T22:33:01.294Z,8.10
2018-03-28T22:35:27.603Z,8.20
2018-03-28T22:37:54.721Z,8.20
2018-03-28T22:40:22.031Z,8.20
2018-03-28T22:42:48.326Z,8.20
2018-03-28T22:45:14.635Z,8.20
2018-03-28T22:47:40.931Z,8.20
2018-03-28T22:50:07.247Z,8.10
2018-03-28T22:52:33.576Z,8.00
2018-03-28T22:54:59.935Z,8.00
2018-03-28T22:57:26.254Z,8.00
2018-03-28T22:59:52.570Z,8.00
2018-03-28T23:02:18.887Z,8.00
2018-03-28T23:04:45.942Z,7.90
2018-03-28T23:07:12.239Z,7.90
2018-03-28T23:09:38.544Z,7.80
2018-03-28T23:12:04.978Z,7.90
2018-03-28T23:14:31.322Z,7.90
2018-03-28T23:16:57.637Z,7.80
2018-03-28T23:19:23.986Z,7.80
2018-03-28T23:21:51.350Z,7.80
2018-03-28T23:24:17.639Z,7.70
2018-03-28T23:26:43.964Z,7.80
2018-03-28T23:29:10.273Z,7.70
2018-03-28T23:31:37.327Z,7.70
2018-03-28T23:34:04.363Z,7.60
2018-03-28T23:36:32.415Z,7.50
2018-03-28T23:39:00.191Z,7.40
2018-03-28T23:41:26.470Z,7.40
2018-03-28T23:43:52.745Z,7.50
2018-03-28T23:46:19.040Z,7.50
2018-03-28T23:48:45.369Z,7.40
2018-03-28T23:51:11.661Z,7.40
2018-03-28T23:53:37.942Z,7.30
2018-03-28T23:56:04.244Z,7.30
2018-03-28T23:58:30.529Z,7.20
